sensor_id;sensor_type;location;lat;lon;timestamp;temperature;humidity
6110;DHT22;3085;49.444;11.054;2022-12-29T00:01:29;7.40;99.90
6110;DHT22;3085;49.444;11.054;2022-12-29T00:03:56;7.40;99.90
6110;DHT22;3085;49.444;11.054;2022-12-29T00:06:23;7.40;99.90
6110;DHT22;3085;49.444;11.054;2022-12-29T00:08:52;7.40;99.90
6110;DHT22;3085;49.444;11.054;2022-12-29T00:11:20;7.40;99.90
6110;DHT22;3085;49.444;11.054;2022-12-29T00:13:47;7.40;99.90
6110;DHT22;3085;49.444;11.054;2022-12-29T00:16:32;7.50;99.90
6110;DHT22;3085;49.444;11.054;2022-12-29T00:19:00;7.40;99.90
6110;DHT22;3085;49.444;11.054;2022-12-29T00:21:27;7.50;99.90
6110;DHT22;3085;49.444;11.054;2022-12-29T00:24:15;7.50;99.90
6110;DHT22;3085;49.444;11.054;2022-12-29T00:27:10;7.50;99.90
6110;DHT22;3085;49.444;11.054;2022-12-29T00:29:57;7.50;99.90
6110;DHT22;3085;49.444;11.054;2022-12-29T00:32:41;7.50;99.90
6110;DHT22;3085;49.444;11.054;2022-12-29T00:35:28;7.50;99.90
6110;DHT22;3085;49.444;11.054;2022-12-29T00:37:58;7.50;99.90
6110;DHT22;3085;49.444;11.054;2022-12-29T00:40:44;7.50;99.90
6110;DHT22;3085;49.444;11.054;2022-12-29T00:43:29;7.50;99.90
6110;DHT22;3085;49.444;11.054;2022-12-29T00:46:13;7.60;99.90
6110;DHT22;3085;49.444;11.054;2022-12-29T00:48:40;7.60;99.90
6110;DHT22;3085;49.444;11.054;2022-12-29T00:51:33;7.60;99.90
6110;DHT22;3085;49.444;11.054;2022-12-29T00:54:00;7.60;99.90
6110;DHT22;3085;49.444;11.054;2022-12-29T00:56:28;7.60;99.90
6110;DHT22;3085;49.444;11.054;2022-12-29T00:58:54;7.70;99.90
6110;DHT22;3085;49.444;11.054;2022-12-29T01:01:21;7.60;99.90
6110;DHT22;3085;49.444;11.054;2022-12-29T01:03:48;7.60;99.90
6110;DHT22;3085;49.444;11.054;2022-12-29T01:06:15;7.60;99.90
6110;DHT22;3085;49.444;11.054;2022-12-29T01:08:41;7.70;99.90
6110;DHT22;3085;49.444;11.054;2022-12-29T01:11:11;7.70;99.90
6110;DHT22;3085;49.444;11.054;2022-12-29T01:13:38;7.80;99.90
6110;DHT22;3085;49.444;11.054;2022-12-29T01:16:07;7.80;99.90
6110;DHT22;3085;49.444;11.054;2022-12-29T01:18:33;7.80;99.90
6110;DHT22;3085;49.444;11.054;2022-12-29T01:21:01;7.70;99.90
6110;DHT22;3085;49.444;11.054;2022-12-29T01:23:29;7.80;99.90
6110;DHT22;3085;49.444;11.054;2022-12-29T01:25:56;7.80;99.90
6110;DHT22;3085;49.444;11.054;2022-12-29T01:28:23;8.00;99.90
6110;DHT22;3085;49.444;11.054;2022-12-29T01:30:51;7.80;99.90
6110;DHT22;3085;49.444;11.054;2022-12-29T01:33:18;7.80;99.90
6110;DHT22;3085;49.444;11.054;2022-12-29T01:35:45;7.80;99.90
6110;DHT22;3085;49.444;11.054;2022-12-29T01:38:11;7.80;99.90
6110;DHT22;3085;49.444;11.054;2022-12-29T01:40:45;7.80;99.90
6110;DHT22;3085;49.444;11.054;2022-12-29T01:43:13;7.80;99.90
6110;DHT22;3085;49.444;11.054;2022-12-29T01:45:43;7.80;99.90
6110;DHT22;3085;49.444;11.054;2022-12-29T01:48:12;7.80;99.90
6110;DHT22;3085;49.444;11.054;2022-12-29T01:50:42;7.80;99.90
6110;DHT22;3085;49.444;11.054;2022-12-29T01:53:13;7.80;99.90
6110;DHT22;3085;49.444;11.054;2022-12-29T01:55:45;7.80;99.90
6110;DHT22;3085;49.444;11.054;2022-12-29T01:58:14;7.90;99.90
6110;DHT22;3085;49.444;11.054;2022-12-29T02:00:42;7.90;99.90
6110;DHT22;3085;49.444;11.054;2022-12-29T02:03:09;7.90;99.90
6110;DHT22;3085;49.444;11.054;2022-12-29T02:05:42;7.90;99.90
6110;DHT22;3085;49.444;11.054;2022-12-29T02:08:11;8.40;99.90
6110;DHT22;3085;49.444;11.054;2022-12-29T02:10:39;7.90;99.90
6110;DHT22;3085;49.444;11.054;2022-12-29T02:13:07;7.90;99.90
6110;DHT22;3085;49.444;11.054;2022-12-29T02:15:42;8.00;99.90
6110;DHT22;3085;49.444;11.054;2022-12-29T02:18:22;8.90;99.90
6110;DHT22;3085;49.444;11.054;2022-12-29T02:21:20;8.00;99.90
6110;DHT22;3085;49.444;11.054;2022-12-29T02:24:21;8.00;99.90
6110;DHT22;3085;49.444;11.054;2022-12-29T02:27:24;8.00;99.90
6110;DHT22;3085;49.444;11.054;2022-12-29T02:30:03;8.10;99.90
6110;DHT22;3085;49.444;11.054;2022-12-29T02:32:37;8.10;99.90
6110;DHT22;3085;49.444;11.054;2022-12-29T02:35:10;8.20;99.90
6110;DHT22;3085;49.444;11.054;2022-12-29T02:37:44;8.10;99.90
6110;DHT22;3085;49.444;11.054;2022-12-29T02:40:20;9.20;99.90
6110;DHT22;3085;49.444;11.054;2022-12-29T02:42:55;8.10;99.90
6110;DHT22;3085;49.444;11.054;2022-12-29T02:45:30;8.10;99.90
6110;DHT22;3085;49.444;11.054;2022-12-29T02:48:04;8.20;99.90
6110;DHT22;3085;49.444;11.054;2022-12-29T02:50:37;8.20;99.90
6110;DHT22;3085;49.444;11.054;2022-12-29T02:53:07;8.20;99.90
6110;DHT22;3085;49.444;11.054;2022-12-29T02:55:35;8.20;99.90
6110;DHT22;3085;49.444;11.054;2022-12-29T02:58:20;8.30;99.90
6110;DHT22;3085;49.444;11.054;2022-12-29T03:00:56;8.20;99.90
6110;DHT22;3085;49.444;11.054;2022-12-29T03:03:37;8.20;99.90
6110;DHT22;3085;49.444;11.054;2022-12-29T03:06:30;8.30;99.90
6110;DHT22;3085;49.444;11.054;2022-12-29T03:09:05;8.30;99.90
6110;DHT22;3085;49.444;11.054;2022-12-29T03:11:43;8.30;99.90
6110;DHT22;3085;49.444;11.054;2022-12-29T03:14:34;8.30;99.90
6110;DHT22;3085;49.444;11.054;2022-12-29T03:17:26;8.30;99.90
6110;DHT22;3085;49.444;11.054;2022-12-29T03:20:01;8.30;99.90
6110;DHT22;3085;49.444;11.054;2022-12-29T03:22:32;8.30;99.90
6110;DHT22;3085;49.444;11.054;2022-12-29T03:25:03;8.30;99.90
6110;DHT22;3085;49.444;11.054;2022-12-29T03:27:34;8.40;99.90
6110;DHT22;3085;49.444;11.054;2022-12-29T03:30:04;8.30;99.90
6110;DHT22;3085;49.444;11.054;2022-12-29T03:32:34;8.30;99.90
6110;DHT22;3085;49.444;11.054;2022-12-29T03:35:05;8.30;99.90
6110;DHT22;3085;49.444;11.054;2022-12-29T03:37:37;8.30;99.90
6110;DHT22;3085;49.444;11.054;2022-12-29T03:40:07;8.30;99.90
6110;DHT22;3085;49.444;11.054;2022-12-29T03:42:36;8.30;99.90
6110;DHT22;3085;49.444;11.054;2022-12-29T03:45:04;8.30;99.90
6110;DHT22;3085;49.444;11.054;2022-12-29T03:47:33;8.30;99.90
6110;DHT22;3085;49.444;11.054;2022-12-29T03:50:00;8.20;99.90
6110;DHT22;3085;49.444;11.054;2022-12-29T03:52:28;8.20;99.90
6110;DHT22;3085;49.444;11.054;2022-12-29T03:54:54;8.20;99.90
6110;DHT22;3085;49.444;11.054;2022-12-29T03:57:21;8.20;99.90
6110;DHT22;3085;49.444;11.054;2022-12-29T03:59:48;8.20;99.90
6110;DHT22;3085;49.444;11.054;2022-12-29T04:02:15;8.20;99.90
6110;DHT22;3085;49.444;11.054;2022-12-29T04:04:41;8.40;99.90
6110;DHT22;3085;49.444;11.054;2022-12-29T04:07:08;8.20;99.90
6110;DHT22;3085;49.444;11.054;2022-12-29T04:09:36;8.30;99.90
6110;DHT22;3085;49.444;11.054;2022-12-29T04:12:03;8.30;99.90
6110;DHT22;3085;49.444;11.054;2022-12-29T04:14:30;8.30;99.90
6110;DHT22;3085;49.444;11.054;2022-12-29T04:16:57;8.30;99.90
6110;DHT22;3085;49.444;11.054;2022-12-29T04:19:24;8.30;99.90
6110;DHT22;3085;49.444;11.054;2022-12-29T04:21:50;8.30;99.90
6110;DHT22;3085;49.444;11.054;2022-12-29T04:24:16;8.30;99.90
6110;DHT22;3085;49.444;11.054;2022-12-29T04:26:44;8.30;99.90
6110;DHT22;3085;49.444;11.054;2022-12-29T04:29:11;8.30;99.90
6110;DHT22;3085;49.444;11.054;2022-12-29T04:31:38;8.30;99.90
6110;DHT22;3085;49.444;11.054;2022-12-29T04:34:05;8.20;99.90
6110;DHT22;3085;49.444;11.054;2022-12-29T04:36:31;8.30;99.90
6110;DHT22;3085;49.444;11.054;2022-12-29T04:38:58;8.30;99.90
6110;DHT22;3085;49.444;11.054;2022-12-29T04:41:25;8.30;99.90
6110;DHT22;3085;49.444;11.054;2022-12-29T04:43:53;8.30;99.90
6110;DHT22;3085;49.444;11.054;2022-12-29T04:46:20;8.20;99.90
6110;DHT22;3085;49.444;11.054;2022-12-29T04:48:47;9.20;99.90
6110;DHT22;3085;49.444;11.054;2022-12-29T04:51:13;8.20;99.90
6110;DHT22;3085;49.444;11.054;2022-12-29T04:53:40;8.30;99.90
6110;DHT22;3085;49.444;11.054;2022-12-29T04:56:07;8.30;99.90
6110;DHT22;3085;49.444;11.054;2022-12-29T04:58:36;8.20;99.90
6110;DHT22;3085;49.444;11.054;2022-12-29T05:01:04;8.20;99.90
6110;DHT22;3085;49.444;11.054;2022-12-29T05:03:31;8.20;99.90
6110;DHT22;3085;49.444;11.054;2022-12-29T05:05:58;9.00;99.90
6110;DHT22;3085;49.444;11.054;2022-12-29T05:08:25;8.20;99.90
6110;DHT22;3085;49.444;11.054;2022-12-29T05:10:51;8.20;99.90
6110;DHT22;3085;49.444;11.054;2022-12-29T05:13:18;8.20;99.90
6110;DHT22;3085;49.444;11.054;2022-12-29T05:15:47;8.20;99.90
6110;DHT22;3085;49.444;11.054;2022-12-29T05:18:17;8.10;99.90
6110;DHT22;3085;49.444;11.054;2022-12-29T05:20:45;8.20;99.90
6110;DHT22;3085;49.444;11.054;2022-12-29T05:23:12;8.20;99.90
6110;DHT22;3085;49.444;11.054;2022-12-29T05:25:39;8.20;99.90
6110;DHT22;3085;49.444;11.054;2022-12-29T05:28:05;8.20;99.90
6110;DHT22;3085;49.444;11.054;2022-12-29T05:30:32;8.20;99.90
6110;DHT22;3085;49.444;11.054;2022-12-29T05:32:59;8.20;99.90
6110;DHT22;3085;49.444;11.054;2022-12-29T05:35:27;8.10;99.90
6110;DHT22;3085;49.444;11.054;2022-12-29T05:37:54;8.10;99.90
6110;DHT22;3085;49.444;11.054;2022-12-29T05:40:20;8.10;99.90
6110;DHT22;3085;49.444;11.054;2022-12-29T05:42:47;8.20;99.90
6110;DHT22;3085;49.444;11.054;2022-12-29T05:45:14;8.00;99.90
6110;DHT22;3085;49.444;11.054;2022-12-29T05:47:41;8.00;99.90
6110;DHT22;3085;49.444;11.054;2022-12-29T05:50:08;8.00;99.90
6110;DHT22;3085;49.444;11.054;2022-12-29T05:52:36;8.00;99.90
6110;DHT22;3085;49.444;11.054;2022-12-29T05:55:03;8.00;99.90
6110;DHT22;3085;49.444;11.054;2022-12-29T05:57:30;7.90;99.90
6110;DHT22;3085;49.444;11.054;2022-12-29T05:59:57;7.90;99.90
6110;DHT22;3085;49.444;11.054;2022-12-29T06:02:24;7.90;99.90
6110;DHT22;3085;49.444;11.054;2022-12-29T06:04:50;7.90;99.90
6110;DHT22;3085;49.444;11.054;2022-12-29T06:07:17;7.90;99.90
6110;DHT22;3085;49.444;11.054;2022-12-29T06:09:45;7.90;99.90
6110;DHT22;3085;49.444;11.054;2022-12-29T06:12:12;7.90;99.90
6110;DHT22;3085;49.444;11.054;2022-12-29T06:14:39;7.90;99.90
6110;DHT22;3085;49.444;11.054;2022-12-29T06:17:05;7.80;99.90
6110;DHT22;3085;49.444;11.054;2022-12-29T06:19:32;7.80;99.90
6110;DHT22;3085;49.444;11.054;2022-12-29T06:21:59;7.80;99.90
6110;DHT22;3085;49.444;11.054;2022-12-29T06:24:26;7.80;99.90
6110;DHT22;3085;49.444;11.054;2022-12-29T06:26:54;7.80;99.90
6110;DHT22;3085;49.444;11.054;2022-12-29T06:29:21;7.80;99.90
6110;DHT22;3085;49.444;11.054;2022-12-29T06:31:47;7.90;99.90
6110;DHT22;3085;49.444;11.054;2022-12-29T06:34:16;7.90;99.90
6110;DHT22;3085;49.444;11.054;2022-12-29T06:36:43;7.90;99.90
6110;DHT22;3085;49.444;11.054;2022-12-29T06:39:10;7.90;99.90
6110;DHT22;3085;49.444;11.054;2022-12-29T06:41:37;7.90;99.90
6110;DHT22;3085;49.444;11.054;2022-12-29T06:44:05;7.90;99.90
6110;DHT22;3085;49.444;11.054;2022-12-29T06:46:32;7.90;99.90
6110;DHT22;3085;49.444;11.054;2022-12-29T06:48:59;7.90;99.90
6110;DHT22;3085;49.444;11.054;2022-12-29T06:51:26;7.90;99.90
6110;DHT22;3085;49.444;11.054;2022-12-29T06:53:52;7.90;99.90
6110;DHT22;3085;49.444;11.054;2022-12-29T06:56:19;7.90;99.90
6110;DHT22;3085;49.444;11.054;2022-12-29T06:58:46;7.90;99.90
6110;DHT22;3085;49.444;11.054;2022-12-29T07:01:14;7.90;99.90
6110;DHT22;3085;49.444;11.054;2022-12-29T07:03:41;7.90;99.90
6110;DHT22;3085;49.444;11.054;2022-12-29T07:06:08;7.80;99.90
6110;DHT22;3085;49.444;11.054;2022-12-29T07:08:35;7.80;99.90
6110;DHT22;3085;49.444;11.054;2022-12-29T07:11:02;7.80;99.90
6110;DHT22;3085;49.444;11.054;2022-12-29T07:13:29;7.80;99.90
6110;DHT22;3085;49.444;11.054;2022-12-29T07:15:55;8.50;99.90
6110;DHT22;3085;49.444;11.054;2022-12-29T07:18:24;7.90;99.90
6110;DHT22;3085;49.444;11.054;2022-12-29T07:20:50;7.90;99.90
6110;DHT22;3085;49.444;11.054;2022-12-29T07:23:17;7.90;99.90
6110;DHT22;3085;49.444;11.054;2022-12-29T07:25:44;7.90;99.90
6110;DHT22;3085;49.444;11.054;2022-12-29T07:28:10;8.00;99.90
6110;DHT22;3085;49.444;11.054;2022-12-29T07:30:37;7.90;99.90
6110;DHT22;3085;49.444;11.054;2022-12-29T07:33:04;8.00;99.90
6110;DHT22;3085;49.444;11.054;2022-12-29T07:35:33;8.00;99.90
6110;DHT22;3085;49.444;11.054;2022-12-29T07:38:00;8.00;99.90
6110;DHT22;3085;49.444;11.054;2022-12-29T07:40:27;8.00;99.90
6110;DHT22;3085;49.444;11.054;2022-12-29T07:42:53;8.00;99.90
6110;DHT22;3085;49.444;11.054;2022-12-29T07:45:20;8.00;99.90
6110;DHT22;3085;49.444;11.054;2022-12-29T07:47:48;8.00;99.90
6110;DHT22;3085;49.444;11.054;2022-12-29T07:50:15;8.00;99.90
6110;DHT22;3085;49.444;11.054;2022-12-29T07:52:43;8.00;99.90
6110;DHT22;3085;49.444;11.054;2022-12-29T07:55:12;8.00;99.90
6110;DHT22;3085;49.444;11.054;2022-12-29T07:57:39;8.10;99.90
6110;DHT22;3085;49.444;11.054;2022-12-29T08:00:08;9.10;99.90
6110;DHT22;3085;49.444;11.054;2022-12-29T08:02:35;8.10;99.90
6110;DHT22;3085;49.444;11.054;2022-12-29T08:05:02;8.40;99.90
6110;DHT22;3085;49.444;11.054;2022-12-29T08:07:29;9.00;99.90
6110;DHT22;3085;49.444;11.054;2022-12-29T08:09:57;9.10;99.90
6110;DHT22;3085;49.444;11.054;2022-12-29T08:12:24;8.90;99.90
6110;DHT22;3085;49.444;11.054;2022-12-29T08:14:51;8.80;99.90
6110;DHT22;3085;49.444;11.054;2022-12-29T08:17:18;8.90;99.90
6110;DHT22;3085;49.444;11.054;2022-12-29T08:19:45;9.40;99.90
6110;DHT22;3085;49.444;11.054;2022-12-29T08:22:13;8.90;99.90
6110;DHT22;3085;49.444;11.054;2022-12-29T08:24:40;9.00;99.90
6110;DHT22;3085;49.444;11.054;2022-12-29T08:27:09;8.80;99.90
6110;DHT22;3085;49.444;11.054;2022-12-29T08:29:36;7.80;99.90
6110;DHT22;3085;49.444;11.054;2022-12-29T08:32:03;8.90;99.90
6110;DHT22;3085;49.444;11.054;2022-12-29T08:34:30;8.90;99.90
6110;DHT22;3085;49.444;11.054;2022-12-29T08:36:57;8.90;99.90
6110;DHT22;3085;49.444;11.054;2022-12-29T08:39:24;8.90;99.90
6110;DHT22;3085;49.444;11.054;2022-12-29T08:41:51;9.00;99.90
6110;DHT22;3085;49.444;11.054;2022-12-29T08:44:19;9.00;99.90
6110;DHT22;3085;49.444;11.054;2022-12-29T08:46:46;9.00;99.90
6110;DHT22;3085;49.444;11.054;2022-12-29T08:49:13;9.10;99.90
6110;DHT22;3085;49.444;11.054;2022-12-29T08:51:40;9.10;99.90
6110;DHT22;3085;49.444;11.054;2022-12-29T08:54:07;9.10;99.90
6110;DHT22;3085;49.444;11.054;2022-12-29T08:56:34;9.10;99.90
6110;DHT22;3085;49.444;11.054;2022-12-29T08:59:00;9.20;99.90
6110;DHT22;3085;49.444;11.054;2022-12-29T09:01:29;9.20;99.90
6110;DHT22;3085;49.444;11.054;2022-12-29T09:03:56;9.20;99.90
6110;DHT22;3085;49.444;11.054;2022-12-29T09:06:23;9.20;99.90
6110;DHT22;3085;49.444;11.054;2022-12-29T09:08:50;9.30;99.90
6110;DHT22;3085;49.444;11.054;2022-12-29T09:11:19;9.30;99.90
6110;DHT22;3085;49.444;11.054;2022-12-29T09:13:47;9.40;99.90
6110;DHT22;3085;49.444;11.054;2022-12-29T09:16:14;9.40;99.90
6110;DHT22;3085;49.444;11.054;2022-12-29T09:18:43;9.40;99.90
6110;DHT22;3085;49.444;11.054;2022-12-29T09:21:11;9.50;99.90
6110;DHT22;3085;49.444;11.054;2022-12-29T09:23:38;9.50;99.90
6110;DHT22;3085;49.444;11.054;2022-12-29T09:26:06;9.60;99.90
6110;DHT22;3085;49.444;11.054;2022-12-29T09:28:33;9.70;99.90
6110;DHT22;3085;49.444;11.054;2022-12-29T09:31:00;9.80;99.90
6110;DHT22;3085;49.444;11.054;2022-12-29T09:33:27;9.80;99.90
6110;DHT22;3085;49.444;11.054;2022-12-29T09:35:57;11.40;99.90
6110;DHT22;3085;49.444;11.054;2022-12-29T09:38:25;9.90;99.90
6110;DHT22;3085;49.444;11.054;2022-12-29T09:40:55;10.00;99.90
6110;DHT22;3085;49.444;11.054;2022-12-29T09:43:38;10.30;99.90
6110;DHT22;3085;49.444;11.054;2022-12-29T09:46:17;10.10;99.90
6110;DHT22;3085;49.444;11.054;2022-12-29T09:48:49;10.10;99.90
6110;DHT22;3085;49.444;11.054;2022-12-29T09:51:22;10.10;99.90
6110;DHT22;3085;49.444;11.054;2022-12-29T09:53:53;10.20;99.90
6110;DHT22;3085;49.444;11.054;2022-12-29T09:56:23;10.20;99.90
6110;DHT22;3085;49.444;11.054;2022-12-29T09:58:53;10.40;99.90
6110;DHT22;3085;49.444;11.054;2022-12-29T10:01:28;10.60;99.90
6110;DHT22;3085;49.444;11.054;2022-12-29T10:04:02;11.60;99.90
6110;DHT22;3085;49.444;11.054;2022-12-29T10:06:39;10.30;99.90
6110;DHT22;3085;49.444;11.054;2022-12-29T10:09:13;10.40;99.90
6110;DHT22;3085;49.444;11.054;2022-12-29T10:11:53;10.40;99.90
6110;DHT22;3085;49.444;11.054;2022-12-29T10:14:37;10.40;99.90
6110;DHT22;3085;49.444;11.054;2022-12-29T10:17:14;10.50;99.90
6110;DHT22;3085;49.444;11.054;2022-12-29T10:19:56;10.90;99.90
6110;DHT22;3085;49.444;11.054;2022-12-29T10:22:40;10.40;99.90
6110;DHT22;3085;49.444;11.054;2022-12-29T10:25:16;10.40;99.90
6110;DHT22;3085;49.444;11.054;2022-12-29T10:27:47;10.40;99.90
6110;DHT22;3085;49.444;11.054;2022-12-29T10:30:15;10.50;99.90
6110;DHT22;3085;49.444;11.054;2022-12-29T10:32:46;10.50;99.90
6110;DHT22;3085;49.444;11.054;2022-12-29T10:35:19;11.20;99.90
6110;DHT22;3085;49.444;11.054;2022-12-29T10:37:50;11.80;99.90
6110;DHT22;3085;49.444;11.054;2022-12-29T10:40:24;10.60;99.90
6110;DHT22;3085;49.444;11.054;2022-12-29T10:42:53;10.60;99.90
6110;DHT22;3085;49.444;11.054;2022-12-29T10:45:24;10.80;99.90
6110;DHT22;3085;49.444;11.054;2022-12-29T10:48:06;10.70;99.90
6110;DHT22;3085;49.444;11.054;2022-12-29T10:50:36;10.80;99.90
6110;DHT22;3085;49.444;11.054;2022-12-29T10:53:17;12.00;99.90
6110;DHT22;3085;49.444;11.054;2022-12-29T10:55:46;10.80;99.90
6110;DHT22;3085;49.444;11.054;2022-12-29T10:58:14;10.90;99.90
6110;DHT22;3085;49.444;11.054;2022-12-29T11:00:42;10.90;99.90
6110;DHT22;3085;49.444;11.054;2022-12-29T11:06:17;11.00;99.90
6110;DHT22;3085;49.444;11.054;2022-12-29T11:08:53;11.10;99.90
6110;DHT22;3085;49.444;11.054;2022-12-29T11:11:25;12.30;99.90
6110;DHT22;3085;49.444;11.054;2022-12-29T11:13:57;11.30;99.90
6110;DHT22;3085;49.444;11.054;2022-12-29T11:16:29;11.20;99.90
6110;DHT22;3085;49.444;11.054;2022-12-29T11:19:00;11.30;99.90
6110;DHT22;3085;49.444;11.054;2022-12-29T11:21:31;12.40;99.90
6110;DHT22;3085;49.444;11.054;2022-12-29T11:24:02;11.40;99.90
6110;DHT22;3085;49.444;11.054;2022-12-29T11:26:32;11.50;99.90
6110;DHT22;3085;49.444;11.054;2022-12-29T11:29:22;11.50;99.90
6110;DHT22;3085;49.444;11.054;2022-12-29T11:31:51;11.60;99.90
6110;DHT22;3085;49.444;11.054;2022-12-29T11:34:21;11.60;99.90
6110;DHT22;3085;49.444;11.054;2022-12-29T11:36:54;11.70;99.90
6110;DHT22;3085;49.444;11.054;2022-12-29T11:39:32;11.70;99.90
6110;DHT22;3085;49.444;11.054;2022-12-29T11:42:01;11.60;99.90
6110;DHT22;3085;49.444;11.054;2022-12-29T11:44:35;11.50;99.90
6110;DHT22;3085;49.444;11.054;2022-12-29T11:47:03;11.70;99.90
6110;DHT22;3085;49.444;11.054;2022-12-29T11:49:30;11.70;99.90
6110;DHT22;3085;49.444;11.054;2022-12-29T11:51:57;11.70;99.90
6110;DHT22;3085;49.444;11.054;2022-12-29T11:54:27;11.80;99.90
6110;DHT22;3085;49.444;11.054;2022-12-29T11:56:55;11.80;99.90
6110;DHT22;3085;49.444;11.054;2022-12-29T11:59:37;11.80;99.90
6110;DHT22;3085;49.444;11.054;2022-12-29T12:02:18;11.90;99.90
6110;DHT22;3085;49.444;11.054;2022-12-29T12:04:50;12.10;99.90
6110;DHT22;3085;49.444;11.054;2022-12-29T12:07:20;11.90;99.90
6110;DHT22;3085;49.444;11.054;2022-12-29T12:09:51;11.90;99.90
6110;DHT22;3085;49.444;11.054;2022-12-29T12:12:24;12.00;99.90
6110;DHT22;3085;49.444;11.054;2022-12-29T12:14:56;12.00;99.90
6110;DHT22;3085;49.444;11.054;2022-12-29T12:17:28;12.10;99.90
6110;DHT22;3085;49.444;11.054;2022-12-29T12:20:10;12.10;99.90
6110;DHT22;3085;49.444;11.054;2022-12-29T12:22:42;12.20;99.90
6110;DHT22;3085;49.444;11.054;2022-12-29T12:25:17;12.20;99.90
6110;DHT22;3085;49.444;11.054;2022-12-29T12:27:51;12.10;99.90
6110;DHT22;3085;49.444;11.054;2022-12-29T12:30:21;12.20;99.90
6110;DHT22;3085;49.444;11.054;2022-12-29T12:32:52;12.20;99.90
6110;DHT22;3085;49.444;11.054;2022-12-29T12:35:29;12.20;99.90
6110;DHT22;3085;49.444;11.054;2022-12-29T12:38:19;12.10;99.90
6110;DHT22;3085;49.444;11.054;2022-12-29T12:40:58;12.10;99.90
6110;DHT22;3085;49.444;11.054;2022-12-29T12:43:37;12.10;99.90
6110;DHT22;3085;49.444;11.054;2022-12-29T12:46:19;12.20;99.90
6110;DHT22;3085;49.444;11.054;2022-12-29T12:49:26;12.20;99.90
6110;DHT22;3085;49.444;11.054;2022-12-29T12:52:05;12.10;99.90
6110;DHT22;3085;49.444;11.054;2022-12-29T12:54:42;12.10;99.90
6110;DHT22;3085;49.444;11.054;2022-12-29T12:57:17;12.10;99.90
6110;DHT22;3085;49.444;11.054;2022-12-29T12:59:55;12.10;99.90
6110;DHT22;3085;49.444;11.054;2022-12-29T13:02:43;12.20;99.90
6110;DHT22;3085;49.444;11.054;2022-12-29T13:05:24;12.00;99.90
6110;DHT22;3085;49.444;11.054;2022-12-29T13:08:02;12.00;99.90
6110;DHT22;3085;49.444;11.054;2022-12-29T13:10:41;12.00;99.90
6110;DHT22;3085;49.444;11.054;2022-12-29T13:13:32;12.00;99.90
6110;DHT22;3085;49.444;11.054;2022-12-29T13:16:08;12.00;99.90
6110;DHT22;3085;49.444;11.054;2022-12-29T13:18:46;11.90;99.90
6110;DHT22;3085;49.444;11.054;2022-12-29T13:21:23;11.90;99.90
6110;DHT22;3085;49.444;11.054;2022-12-29T13:23:56;11.80;99.90
6110;DHT22;3085;49.444;11.054;2022-12-29T13:26:28;11.90;99.90
6110;DHT22;3085;49.444;11.054;2022-12-29T13:29:03;11.70;99.90
6110;DHT22;3085;49.444;11.054;2022-12-29T13:31:38;11.70;99.90
6110;DHT22;3085;49.444;11.054;2022-12-29T13:34:15;11.70;99.90
6110;DHT22;3085;49.444;11.054;2022-12-29T13:36:45;11.60;99.90
6110;DHT22;3085;49.444;11.054;2022-12-29T13:39:19;11.60;99.90
6110;DHT22;3085;49.444;11.054;2022-12-29T13:41:51;11.60;99.90
6110;DHT22;3085;49.444;11.054;2022-12-29T13:44:22;11.60;99.90
6110;DHT22;3085;49.444;11.054;2022-12-29T13:46:51;11.60;99.90
6110;DHT22;3085;49.444;11.054;2022-12-29T13:49:20;11.60;99.90
6110;DHT22;3085;49.444;11.054;2022-12-29T13:51:50;11.60;99.90
6110;DHT22;3085;49.444;11.054;2022-12-29T13:54:30;11.60;99.90
6110;DHT22;3085;49.444;11.054;2022-12-29T13:57:06;11.60;99.90
6110;DHT22;3085;49.444;11.054;2022-12-29T13:59:41;11.60;99.90
6110;DHT22;3085;49.444;11.054;2022-12-29T14:02:18;11.60;99.90
6110;DHT22;3085;49.444;11.054;2022-12-29T14:04:57;11.60;99.90
6110;DHT22;3085;49.444;11.054;2022-12-29T14:07:25;11.60;99.90
6110;DHT22;3085;49.444;11.054;2022-12-29T14:09:53;11.60;99.90
6110;DHT22;3085;49.444;11.054;2022-12-29T14:12:26;11.70;99.90
6110;DHT22;3085;49.444;11.054;2022-12-29T14:14:54;11.60;99.90
6110;DHT22;3085;49.444;11.054;2022-12-29T14:17:22;11.60;99.90
6110;DHT22;3085;49.444;11.054;2022-12-29T14:19:52;11.60;99.90
6110;DHT22;3085;49.444;11.054;2022-12-29T14:22:23;11.60;99.90
6110;DHT22;3085;49.444;11.054;2022-12-29T14:24:51;11.60;99.90
6110;DHT22;3085;49.444;11.054;2022-12-29T14:27:43;11.50;99.90
6110;DHT22;3085;49.444;11.054;2022-12-29T14:33:14;11.50;99.90
6110;DHT22;3085;49.444;11.054;2022-12-29T14:35:51;11.40;99.90
6110;DHT22;3085;49.444;11.054;2022-12-29T14:38:29;11.40;99.90
6110;DHT22;3085;49.444;11.054;2022-12-29T14:41:22;11.40;99.90
6110;DHT22;3085;49.444;11.054;2022-12-29T14:44:03;11.30;99.90
6110;DHT22;3085;49.444;11.054;2022-12-29T14:46:49;11.30;99.90
6110;DHT22;3085;49.444;11.054;2022-12-29T14:49:24;11.30;99.90
6110;DHT22;3085;49.444;11.054;2022-12-29T14:51:53;11.20;99.90
6110;DHT22;3085;49.444;11.054;2022-12-29T14:54:43;11.20;99.90
6110;DHT22;3085;49.444;11.054;2022-12-29T14:57:20;11.20;99.90
6110;DHT22;3085;49.444;11.054;2022-12-29T14:59:48;11.20;99.90
6110;DHT22;3085;49.444;11.054;2022-12-29T15:02:22;11.20;99.90
6110;DHT22;3085;49.444;11.054;2022-12-29T15:04:53;11.20;99.90
6110;DHT22;3085;49.444;11.054;2022-12-29T15:07:21;11.10;99.90
6110;DHT22;3085;49.444;11.054;2022-12-29T15:09:53;11.10;99.90
6110;DHT22;3085;49.444;11.054;2022-12-29T15:12:29;11.10;99.90
6110;DHT22;3085;49.444;11.054;2022-12-29T15:14:58;11.10;99.90
6110;DHT22;3085;49.444;11.054;2022-12-29T15:17:27;11.10;99.90
6110;DHT22;3085;49.444;11.054;2022-12-29T15:19:57;11.10;99.90
6110;DHT22;3085;49.444;11.054;2022-12-29T15:22:25;11.00;99.90
6110;DHT22;3085;49.444;11.054;2022-12-29T15:24:54;11.00;99.90
6110;DHT22;3085;49.444;11.054;2022-12-29T15:27:23;11.00;99.90
6110;DHT22;3085;49.444;11.054;2022-12-29T15:29:57;11.00;99.90
6110;DHT22;3085;49.444;11.054;2022-12-29T15:32:25;11.00;99.90
6110;DHT22;3085;49.444;11.054;2022-12-29T15:34:56;11.00;99.90
6110;DHT22;3085;49.444;11.054;2022-12-29T15:37:28;11.00;99.90
6110;DHT22;3085;49.444;11.054;2022-12-29T15:39:59;11.00;99.90
6110;DHT22;3085;49.444;11.054;2022-12-29T15:42:49;10.90;99.90
6110;DHT22;3085;49.444;11.054;2022-12-29T15:45:18;10.90;99.90
6110;DHT22;3085;49.444;11.054;2022-12-29T15:47:46;10.90;99.90
6110;DHT22;3085;49.444;11.054;2022-12-29T15:50:21;10.90;99.90
6110;DHT22;3085;49.444;11.054;2022-12-29T15:52:49;10.90;99.90
6110;DHT22;3085;49.444;11.054;2022-12-29T15:55:21;10.90;99.90
6110;DHT22;3085;49.444;11.054;2022-12-29T15:57:56;10.80;99.90
6110;DHT22;3085;49.444;11.054;2022-12-29T16:00:24;10.80;99.90
6110;DHT22;3085;49.444;11.054;2022-12-29T16:02:51;10.70;99.90
6110;DHT22;3085;49.444;11.054;2022-12-29T16:05:20;10.70;99.90
6110;DHT22;3085;49.444;11.054;2022-12-29T16:07:55;10.80;99.90
6110;DHT22;3085;49.444;11.054;2022-12-29T16:10:26;10.70;99.90
6110;DHT22;3085;49.444;11.054;2022-12-29T16:12:54;10.60;99.90
6110;DHT22;3085;49.444;11.054;2022-12-29T16:15:21;10.70;99.90
6110;DHT22;3085;49.444;11.054;2022-12-29T16:17:53;10.70;99.90
6110;DHT22;3085;49.444;11.054;2022-12-29T16:20:24;10.70;99.90
6110;DHT22;3085;49.444;11.054;2022-12-29T16:22:56;10.70;99.90
6110;DHT22;3085;49.444;11.054;2022-12-29T16:25:27;10.70;99.90
6110;DHT22;3085;49.444;11.054;2022-12-29T16:27:56;10.70;99.90